createdAt,value
2022-10-17T00:00:01.507Z,1.52
2022-10-17T00:02:28.065Z,1.20
2022-10-17T00:04:54.527Z,1.30
2022-10-17T00:07:21.185Z,1.73
2022-10-17T00:09:47.686Z,1.42
2022-10-17T00:12:14.197Z,3.00
2022-10-17T00:14:40.699Z,1.25
2022-10-17T00:17:07.184Z,1.48
2022-10-17T00:19:33.831Z,1.50
2022-10-17T00:22:00.439Z,1.80
2022-10-17T00:24:26.874Z,1.30
2022-10-17T00:26:53.388Z,1.10
2022-10-17T00:29:19.922Z,1.73
2022-10-17T00:31:46.532Z,1.20
2022-10-17T00:34:13.070Z,1.27
2022-10-17T00:36:39.549Z,2.40
2022-10-17T00:39:06.159Z,1.20
2022-10-17T00:41:34.617Z,1.73
2022-10-17T00:47:15.524Z,1.65
2022-10-17T00:49:42.223Z,1.73
2022-10-17T00:52:13.497Z,1.42
2022-10-17T00:54:45.926Z,1.30
2022-10-17T00:57:13.111Z,1.55
2022-10-17T00:59:41.668Z,1.20
2022-10-17T01:02:18.579Z,1.63
2022-10-17T01:04:48.265Z,1.35
2022-10-17T01:07:15.171Z,1.45
2022-10-17T01:09:44.093Z,1.15
2022-10-17T01:12:29.222Z,1.15
2022-10-17T01:14:55.851Z,1.30
2022-10-17T01:17:30.831Z,1.40
2022-10-17T01:20:19.274Z,1.60
2022-10-17T01:23:18.111Z,1.20
2022-10-17T01:26:22.207Z,1.30
2022-10-17T01:28:48.588Z,1.30
2022-10-17T01:31:25.791Z,1.38
2022-10-17T01:34:00.392Z,1.20
2022-10-17T01:36:37.030Z,1.75
2022-10-17T01:39:43.928Z,1.42
2022-10-17T01:42:26.662Z,1.58
2022-10-17T01:44:57.355Z,1.30
2022-10-17T01:52:27.958Z,1.20
2022-10-17T01:55:10.146Z,1.88
2022-10-17T01:57:41.102Z,1.40
2022-10-17T02:00:13.091Z,1.48
2022-10-17T02:02:41.353Z,1.20
2022-10-17T02:05:08.666Z,1.52
2022-10-17T02:07:35.355Z,1.08
2022-10-17T02:10:04.499Z,1.27
2022-10-17T02:12:38.558Z,1.20
2022-10-17T02:15:20.599Z,1.45
2022-10-17T02:17:49.830Z,1.38
2022-10-17T02:20:30.206Z,2.38
2022-10-17T02:23:11.793Z,1.38
2022-10-17T02:25:42.131Z,1.45
2022-10-17T02:28:17.767Z,1.30
2022-10-17T02:30:47.134Z,1.50
2022-10-17T02:33:31.749Z,1.00
2022-10-17T02:36:01.795Z,1.25
2022-10-17T02:38:30.579Z,1.10
2022-10-17T02:40:57.764Z,1.25
2022-10-17T02:43:24.929Z,1.77
2022-10-17T02:45:52.637Z,1.50
2022-10-17T02:48:29.269Z,1.52
2022-10-17T02:51:01.726Z,2.03
2022-10-17T02:53:59.322Z,1.27
2022-10-17T02:56:29.215Z,1.33
2022-10-17T02:58:59.100Z,1.27
2022-10-17T03:01:26.344Z,1.30
2022-10-17T03:04:14.138Z,1.40
2022-10-17T03:06:41.596Z,1.20
2022-10-17T03:09:08.563Z,1.40
2022-10-17T03:11:35.053Z,2.13
2022-10-17T03:14:01.828Z,1.52
2022-10-17T03:16:28.292Z,1.27
2022-10-17T03:18:54.804Z,1.38
2022-10-17T03:21:21.375Z,2.08
2022-10-17T03:23:47.909Z,1.20
2022-10-17T03:26:14.407Z,1.40
2022-10-17T03:28:40.971Z,1.25
2022-10-17T03:31:09.538Z,2.58
2022-10-17T03:33:37.482Z,1.50
2022-10-17T03:36:09.052Z,1.67
2022-10-17T03:38:35.964Z,1.73
2022-10-17T03:41:04.030Z,1.30
2022-10-17T03:43:30.976Z,1.48
2022-10-17T03:45:58.826Z,1.73
2022-10-17T03:48:26.141Z,1.40
2022-10-17T03:50:53.221Z,1.55
2022-10-17T03:53:19.726Z,1.48
2022-10-17T03:55:46.253Z,1.60
2022-10-17T03:58:12.879Z,1.70
2022-10-17T04:00:39.428Z,1.52
2022-10-17T04:03:05.930Z,1.83
2022-10-17T04:05:32.422Z,1.20
2022-10-17T04:08:01.068Z,1.92
2022-10-17T04:10:30.975Z,2.00
2022-10-17T04:12:57.423Z,2.00
2022-10-17T04:15:23.895Z,3.35
2022-10-17T04:17:50.411Z,2.08
2022-10-17T04:20:17.013Z,1.45
2022-10-17T04:22:43.523Z,2.58
2022-10-17T04:25:10.055Z,1.50
2022-10-17T04:27:36.619Z,2.65
2022-10-17T04:30:03.688Z,2.28
2022-10-17T04:32:30.340Z,1.75
2022-10-17T04:34:56.940Z,1.45
2022-10-17T04:37:23.448Z,1.70
2022-10-17T04:39:49.888Z,1.50
2022-10-17T04:42:16.434Z,1.50
2022-10-17T04:44:43.061Z,2.22
2022-10-17T04:47:09.702Z,2.00
2022-10-17T04:49:36.213Z,1.58
2022-10-17T04:52:02.730Z,1.90
2022-10-17T04:54:29.312Z,1.70
2022-10-17T04:56:55.774Z,1.80
2022-10-17T04:59:22.244Z,1.63
2022-10-17T05:01:49.515Z,1.60
2022-10-17T05:04:16.510Z,1.73
2022-10-17T05:06:44.588Z,1.85
2022-10-17T05:09:11.142Z,1.58
2022-10-17T05:11:37.625Z,1.77
2022-10-17T05:14:04.100Z,1.52
2022-10-17T05:16:30.969Z,1.67
2022-10-17T05:18:58.784Z,1.67
2022-10-17T05:21:27.829Z,1.85
2022-10-17T05:23:54.528Z,1.52
2022-10-17T05:26:22.348Z,1.70
2022-10-17T05:28:49.328Z,1.88
2022-10-17T05:31:16.103Z,1.90
2022-10-17T05:33:42.698Z,1.55
2022-10-17T05:36:09.492Z,1.83
2022-10-17T05:38:36.270Z,2.10
2022-10-17T05:41:05.114Z,1.77
2022-10-17T05:43:33.020Z,1.77
2022-10-17T05:46:02.380Z,1.70
2022-10-17T05:48:28.858Z,1.95
2022-10-17T05:51:00.912Z,1.63
2022-10-17T05:53:31.198Z,2.22
2022-10-17T05:56:03.733Z,1.83
2022-10-17T06:01:18.006Z,2.03
2022-10-17T06:03:44.583Z,1.70
2022-10-17T06:06:13.688Z,1.48
2022-10-17T06:08:40.265Z,1.55
2022-10-17T06:11:09.938Z,2.40
2022-10-17T06:13:37.854Z,2.65
2022-10-17T06:16:04.652Z,1.73
2022-10-17T06:18:31.150Z,1.63
2022-10-17T06:21:09.561Z,1.80
2022-10-17T06:23:36.107Z,1.88
2022-10-17T06:26:05.502Z,1.77
2022-10-17T06:28:32.139Z,1.67
2022-10-17T06:30:58.678Z,1.90
2022-10-17T06:33:25.321Z,1.83
2022-10-17T06:35:55.969Z,1.90
2022-10-17T06:38:22.909Z,1.50
2022-10-17T06:40:49.597Z,2.20
2022-10-17T06:43:16.366Z,1.83
2022-10-17T06:45:42.838Z,1.80
2022-10-17T06:48:09.506Z,2.00
2022-10-17T06:50:35.982Z,2.60
2022-10-17T06:53:02.607Z,1.83
2022-10-17T06:55:29.288Z,2.83
2022-10-17T06:57:56.239Z,2.00
2022-10-17T07:00:23.519Z,2.30
2022-10-17T07:02:50.065Z,2.33
2022-10-17T07:05:16.932Z,2.90
2022-10-17T07:07:44.851Z,2.25
2022-10-17T07:10:13.200Z,2.08
2022-10-17T07:12:39.756Z,1.90
2022-10-17T07:15:06.548Z,2.03
2022-10-17T07:17:33.197Z,1.98
2022-10-17T07:19:59.873Z,3.50
2022-10-17T07:22:26.592Z,2.13
2022-10-17T07:24:53.106Z,7.05
2022-10-17T07:27:19.847Z,2.35
2022-10-17T07:29:46.360Z,2.33
2022-10-17T07:32:12.879Z,3.30
2022-10-17T07:34:39.399Z,2.53
2022-10-17T07:37:07.027Z,1.90
2022-10-17T07:39:35.613Z,6.07
2022-10-17T07:42:02.295Z,2.08
2022-10-17T07:44:28.828Z,2.22
2022-10-17T07:46:55.282Z,2.08
2022-10-17T07:49:21.825Z,2.25
2022-10-17T07:51:48.623Z,1.75
2022-10-17T07:54:15.371Z,2.10
2022-10-17T07:56:41.982Z,3.00
2022-10-17T07:59:09.525Z,2.78
2022-10-17T08:01:36.948Z,2.30
2022-10-17T08:04:03.500Z,3.55
2022-10-17T08:06:30.089Z,3.67
2022-10-17T08:08:57.883Z,2.72
2022-10-17T08:11:25.416Z,2.58
2022-10-17T08:13:51.995Z,2.15
2022-10-17T08:16:18.763Z,3.15
2022-10-17T08:18:45.443Z,2.58
2022-10-17T08:21:13.474Z,4.00
2022-10-17T08:23:40.575Z,2.25
2022-10-17T08:26:10.638Z,2.33
2022-10-17T08:28:39.482Z,2.45
2022-10-17T08:31:09.071Z,1.95
2022-10-17T08:33:35.758Z,2.17
2022-10-17T08:36:03.445Z,2.03
2022-10-17T08:38:34.917Z,2.13
2022-10-17T08:41:06.787Z,2.50
2022-10-17T08:43:48.508Z,2.05
2022-10-17T08:48:49.548Z,2.67
2022-10-17T08:51:21.541Z,2.22
2022-10-17T08:53:54.081Z,2.45
2022-10-17T08:56:49.697Z,3.53
2022-10-17T08:59:17.101Z,2.65
2022-10-17T09:02:03.299Z,1.98
2022-10-17T09:04:45.503Z,2.33
2022-10-17T09:07:41.960Z,1.90
2022-10-17T09:10:30.149Z,2.30
2022-10-17T09:13:02.830Z,2.33
2022-10-17T09:15:51.531Z,1.95
2022-10-17T09:18:33.879Z,1.90
2022-10-17T09:21:21.888Z,2.25
2022-10-17T09:23:53.212Z,2.42
2022-10-17T09:26:26.828Z,2.20
2022-10-17T09:28:59.099Z,2.35
2022-10-17T09:31:34.912Z,2.63
2022-10-17T09:34:03.136Z,2.80
2022-10-17T09:36:33.217Z,2.40
2022-10-17T09:39:12.662Z,4.00
2022-10-17T09:41:47.498Z,5.18
2022-10-17T09:44:32.982Z,3.08
2022-10-17T09:47:24.078Z,5.55
2022-10-17T09:49:51.913Z,3.35
2022-10-17T09:52:24.487Z,4.93
2022-10-17T09:54:59.826Z,3.50
2022-10-17T09:57:26.445Z,5.07
2022-10-17T10:00:01.774Z,2.85
2022-10-17T10:02:30.937Z,5.95
2022-10-17T10:05:06.357Z,4.78
2022-10-17T10:07:37.010Z,6.95
2022-10-17T10:10:06.495Z,6.80
2022-10-17T10:12:38.798Z,6.17
2022-10-17T10:15:38.129Z,6.80
2022-10-17T10:18:24.543Z,7.82
2022-10-17T10:21:05.107Z,6.53
2022-10-17T10:26:17.819Z,6.10
2022-10-17T10:28:55.706Z,4.90
2022-10-17T10:31:33.906Z,5.90
2022-10-17T10:34:11.789Z,4.18
2022-10-17T10:36:52.441Z,5.28
2022-10-17T10:42:39.487Z,4.18
2022-10-17T10:45:35.951Z,6.07
2022-10-17T10:48:34.269Z,5.57
2022-10-17T10:51:16.443Z,3.58
2022-10-17T10:54:12.242Z,4.47
2022-10-17T10:56:48.719Z,4.15
2022-10-17T10:59:30.230Z,3.72
2022-10-17T11:01:56.680Z,3.53
2022-10-17T11:04:45.020Z,3.35
2022-10-17T11:07:15.241Z,5.20
2022-10-17T11:09:56.426Z,5.00
2022-10-17T11:12:28.926Z,4.97
2022-10-17T11:15:20.230Z,2.30
2022-10-17T11:18:02.831Z,3.50
2022-10-17T11:21:00.696Z,3.20
2022-10-17T11:24:09.098Z,4.30
2022-10-17T11:26:44.028Z,2.47
2022-10-17T11:29:13.238Z,4.22
2022-10-17T11:31:47.348Z,2.85
2022-10-17T11:34:23.993Z,3.05
2022-10-17T11:36:54.816Z,3.40
2022-10-17T11:39:41.134Z,5.32
2022-10-17T11:42:14.476Z,3.55
2022-10-17T11:44:42.445Z,2.20
2022-10-17T11:47:32.746Z,2.58
2022-10-17T11:53:04.329Z,2.88
2022-10-17T11:55:32.431Z,2.70
2022-10-17T11:58:43.469Z,3.42
2022-10-17T12:01:21.880Z,2.20
2022-10-17T12:03:53.363Z,2.30
2022-10-17T12:06:35.096Z,2.60
2022-10-17T12:09:25.817Z,2.15
2022-10-17T12:11:58.350Z,3.50
2022-10-17T12:14:33.894Z,2.95
2022-10-17T12:17:01.881Z,2.42
2022-10-17T12:19:32.538Z,1.90
2022-10-17T12:22:21.693Z,3.35
2022-10-17T12:24:55.808Z,2.47
2022-10-17T12:27:34.308Z,2.47
2022-10-17T12:30:07.733Z,4.18
2022-10-17T12:33:00.588Z,2.10
2022-10-17T12:35:24.101Z,2.28
2022-10-17T12:37:50.560Z,1.95
2022-10-17T12:40:35.473Z,3.33
2022-10-17T12:46:08.962Z,2.60
2022-10-17T12:48:38.484Z,2.22
2022-10-17T12:51:35.407Z,2.22
2022-10-17T12:54:12.515Z,2.10
2022-10-17T12:56:45.699Z,1.95
2022-10-17T12:59:26.120Z,2.15
2022-10-17T13:01:59.428Z,2.08
2022-10-17T13:04:28.352Z,3.05
2022-10-17T13:06:58.722Z,1.85
2022-10-17T13:11:53.950Z,1.55
2022-10-17T13:14:23.071Z,1.95
2022-10-17T13:16:56.298Z,2.60
2022-10-17T13:19:26.022Z,3.28
2022-10-17T13:22:06.504Z,3.10
2022-10-17T13:24:40.901Z,2.33
2022-10-17T13:27:28.574Z,2.05
2022-10-17T13:29:57.562Z,2.45
2022-10-17T13:32:25.920Z,2.15
2022-10-17T13:35:11.063Z,2.55
2022-10-17T13:37:40.416Z,3.50
2022-10-17T13:40:30.692Z,3.67
2022-10-17T13:42:56.829Z,1.92
2022-10-17T13:45:29.544Z,2.15
2022-10-17T13:47:56.756Z,2.92
2022-10-17T13:50:44.832Z,2.40
2022-10-17T13:53:33.467Z,3.78
2022-10-17T13:56:27.401Z,1.70
2022-10-17T13:59:00.104Z,2.55
2022-10-17T14:01:28.838Z,1.90
2022-10-17T14:04:07.824Z,3.13
2022-10-17T14:06:46.390Z,2.15
2022-10-17T14:09:30.104Z,1.52
2022-10-17T14:12:11.090Z,3.22
2022-10-17T14:15:05.216Z,2.60
2022-10-17T14:17:28.828Z,3.13
2022-10-17T14:20:08.175Z,2.10
2022-10-17T14:22:50.584Z,2.55
2022-10-17T14:25:55.259Z,1.85
2022-10-17T14:28:23.161Z,1.98
2022-10-17T14:30:57.219Z,2.13
2022-10-17T14:33:30.205Z,2.63
2022-10-17T14:36:02.634Z,1.70
2022-10-17T14:38:30.336Z,2.28
2022-10-17T14:41:30.292Z,2.13
2022-10-17T14:44:03.309Z,2.53
2022-10-17T14:46:29.972Z,2.70
2022-10-17T14:49:06.847Z,2.65
2022-10-17T14:51:44.724Z,2.35
2022-10-17T14:54:26.470Z,2.97
2022-10-17T14:56:55.032Z,2.33
2022-10-17T14:59:52.373Z,2.80
2022-10-17T15:02:13.389Z,2.90
2022-10-17T15:04:40.014Z,1.50
2022-10-17T15:07:06.548Z,2.92
2022-10-17T15:09:33.062Z,1.90
2022-10-17T15:12:06.921Z,3.13
2022-10-17T15:14:33.410Z,1.52
2022-10-17T15:17:00.611Z,1.60
2022-10-17T15:19:27.092Z,2.78
2022-10-17T15:21:53.541Z,2.30
2022-10-17T15:24:19.996Z,2.40
2022-10-17T15:26:46.501Z,2.53
2022-10-17T15:29:16.257Z,2.95
2022-10-17T15:31:42.811Z,1.63
2022-10-17T15:34:09.262Z,2.17
2022-10-17T15:36:48.490Z,3.20
2022-10-17T15:39:15.018Z,2.58
2022-10-17T15:41:41.573Z,1.85
2022-10-17T15:44:08.168Z,1.40
2022-10-17T15:46:35.971Z,2.95
2022-10-17T15:49:05.910Z,2.60
2022-10-17T15:51:32.381Z,2.17
2022-10-17T15:54:01.424Z,1.90
2022-10-17T15:56:31.886Z,1.85
2022-10-17T15:58:58.916Z,2.25
2022-10-17T16:01:28.329Z,1.45
2022-10-17T16:03:55.275Z,1.30
2022-10-17T16:06:22.934Z,1.20
2022-10-17T16:08:50.578Z,2.40
2022-10-17T16:11:21.872Z,1.83
2022-10-17T16:13:54.086Z,2.15
2022-10-17T16:16:22.198Z,2.00
2022-10-17T16:18:49.219Z,2.10
2022-10-17T16:21:17.244Z,1.50
2022-10-17T16:23:44.158Z,1.80
2022-10-17T16:26:14.060Z,1.40
2022-10-17T16:28:46.066Z,1.70
2022-10-17T16:31:24.123Z,1.80
2022-10-17T16:33:52.979Z,1.70
2022-10-17T16:36:20.374Z,1.60
2022-10-17T16:38:47.807Z,2.08
2022-10-17T16:41:26.060Z,1.95
2022-10-17T16:43:54.571Z,1.73
2022-10-17T16:46:22.242Z,2.92
2022-10-17T16:48:48.832Z,3.80
2022-10-17T16:51:18.224Z,2.60
2022-10-17T16:53:46.294Z,1.45
2022-10-17T16:56:15.923Z,1.15
2022-10-17T16:58:43.144Z,2.73
2022-10-17T17:01:13.157Z,1.15
2022-10-17T17:03:42.399Z,2.22
2022-10-17T17:06:12.675Z,1.73
2022-10-17T17:08:39.277Z,1.98
2022-10-17T17:11:10.586Z,1.95
2022-10-17T17:13:37.621Z,2.95
2022-10-17T17:16:07.162Z,1.40
2022-10-17T17:18:33.814Z,1.40
2022-10-17T17:21:05.484Z,1.30
2022-10-17T17:23:34.937Z,1.33
2022-10-17T17:26:07.651Z,1.42
2022-10-17T17:28:35.487Z,2.75
2022-10-17T17:31:02.293Z,2.20
2022-10-17T17:33:30.164Z,1.60
2022-10-17T17:36:01.352Z,2.38
2022-10-17T17:38:33.306Z,1.65
2022-10-17T17:41:00.037Z,1.08
2022-10-17T17:43:26.645Z,1.55
2022-10-17T17:45:53.507Z,1.20
2022-10-17T17:48:20.385Z,2.15
2022-10-17T17:50:47.042Z,1.33
2022-10-17T17:53:15.658Z,1.65
2022-10-17T17:55:42.326Z,1.30
2022-10-17T17:58:09.440Z,1.77
2022-10-17T18:00:36.312Z,1.13
2022-10-17T18:03:03.024Z,1.90
2022-10-17T18:05:30.049Z,1.95
2022-10-17T18:07:56.594Z,1.90
2022-10-17T18:10:23.377Z,1.90
2022-10-17T18:12:49.879Z,1.98
2022-10-17T18:15:16.472Z,1.50
2022-10-17T18:17:43.174Z,2.70
2022-10-17T18:20:10.295Z,1.88
2022-10-17T18:22:36.830Z,2.50
2022-10-17T18:25:03.621Z,2.35
2022-10-17T18:27:30.186Z,2.03
2022-10-17T18:29:56.695Z,2.53
2022-10-17T18:32:23.221Z,4.00
2022-10-17T18:34:49.783Z,2.33
2022-10-17T18:37:16.304Z,1.70
2022-10-17T18:39:42.839Z,2.53
2022-10-17T18:42:09.396Z,1.45
2022-10-17T18:44:35.873Z,1.25
2022-10-17T18:47:04.230Z,2.08
2022-10-17T18:49:31.346Z,2.00
2022-10-17T18:51:59.471Z,2.75
2022-10-17T18:54:25.961Z,2.80
2022-10-17T18:56:54.296Z,1.83
2022-10-17T18:59:21.169Z,1.48
2022-10-17T19:01:48.742Z,1.73
2022-10-17T19:04:15.760Z,2.75
2022-10-17T19:06:43.158Z,1.50
2022-10-17T19:09:12.234Z,1.48
2022-10-17T19:11:39.236Z,1.58
2022-10-17T19:14:13.021Z,1.30
2022-10-17T19:16:43.136Z,3.67
2022-10-17T19:19:18.375Z,2.72
2022-10-17T19:21:45.396Z,1.95
2022-10-17T19:24:21.166Z,2.65
2022-10-17T19:26:53.408Z,1.48
2022-10-17T19:29:21.755Z,1.98
2022-10-17T19:31:48.771Z,1.45
2022-10-17T19:34:16.570Z,1.63
2022-10-17T19:36:43.832Z,2.20
2022-10-17T19:39:13.600Z,1.55
2022-10-17T19:41:41.476Z,3.22
2022-10-17T19:44:07.950Z,2.33
2022-10-17T19:46:35.177Z,2.00
2022-10-17T19:49:02.567Z,1.63
2022-10-17T19:51:29.304Z,1.92
2022-10-17T19:54:00.315Z,1.60
2022-10-17T19:56:28.956Z,2.13
2022-10-17T19:58:56.190Z,1.88
2022-10-17T20:01:25.828Z,2.13
2022-10-17T20:03:53.250Z,1.40
2022-10-17T20:06:20.720Z,1.30
2022-10-17T20:08:48.150Z,2.22
2022-10-17T20:11:20.377Z,2.42
2022-10-17T20:13:47.662Z,2.42
2022-10-17T20:16:17.536Z,1.48
2022-10-17T20:18:44.449Z,1.58
2022-10-17T20:21:14.410Z,2.42
2022-10-17T20:23:41.849Z,3.17
2022-10-17T20:26:25.925Z,3.67
2022-10-17T20:29:04.080Z,2.42
2022-10-17T20:31:30.894Z,2.75
2022-10-17T20:33:59.466Z,3.35
2022-10-17T20:36:26.760Z,3.25
2022-10-17T20:38:55.067Z,3.08
2022-10-17T20:41:22.116Z,1.98
2022-10-17T20:43:51.417Z,2.63
2022-10-17T20:46:29.776Z,1.98
2022-10-17T20:49:01.896Z,2.70
2022-10-17T20:51:28.588Z,2.30
2022-10-17T20:56:29.641Z,3.25
2022-10-17T20:59:01.458Z,1.70
2022-10-17T21:01:29.458Z,2.00
2022-10-17T21:03:59.629Z,3.17
2022-10-17T21:06:27.245Z,2.17
2022-10-17T21:08:55.420Z,2.53
2022-10-17T21:11:24.669Z,1.27
2022-10-17T21:13:58.003Z,2.15
2022-10-17T21:16:25.843Z,2.80
2022-10-17T21:18:52.714Z,3.47
2022-10-17T21:21:23.434Z,2.55
2022-10-17T21:23:51.030Z,2.05
2022-10-17T21:26:18.462Z,2.60
2022-10-17T21:28:47.152Z,2.25
2022-10-17T21:31:17.545Z,1.95
2022-10-17T21:33:47.551Z,3.78
2022-10-17T21:36:16.766Z,2.55
2022-10-17T21:38:45.353Z,2.50
2022-10-17T21:41:13.879Z,1.90
2022-10-17T21:43:41.139Z,2.67
2022-10-17T21:46:11.455Z,2.22
2022-10-17T21:48:38.553Z,2.97
2022-10-17T21:51:07.988Z,1.55
2022-10-17T21:53:34.905Z,2.17
2022-10-17T21:56:02.900Z,2.58
2022-10-17T21:58:30.111Z,1.77
2022-10-17T22:01:12.756Z,1.92
2022-10-17T22:03:44.216Z,1.50
2022-10-17T22:06:38.635Z,2.10
2022-10-17T22:09:02.847Z,1.90
2022-10-17T22:11:31.391Z,2.00
2022-10-17T22:14:03.894Z,2.63
2022-10-17T22:16:30.526Z,2.30
2022-10-17T22:19:05.881Z,2.05
2022-10-17T22:21:35.101Z,2.25
2022-10-17T22:24:04.221Z,2.00
2022-10-17T22:26:32.282Z,1.73
2022-10-17T22:28:58.836Z,2.13
2022-10-17T22:31:25.789Z,2.10
2022-10-17T22:33:52.625Z,3.58
2022-10-17T22:36:19.335Z,2.03
2022-10-17T22:38:45.903Z,2.00
2022-10-17T22:41:12.351Z,2.30
2022-10-17T22:43:38.893Z,2.22
2022-10-17T22:46:06.805Z,2.25
2022-10-17T22:48:33.879Z,3.80
2022-10-17T22:51:01.273Z,2.58
2022-10-17T22:53:29.395Z,3.25
2022-10-17T22:56:05.250Z,2.78
2022-10-17T22:58:34.576Z,2.47
2022-10-17T23:01:01.837Z,3.42
2022-10-17T23:03:29.479Z,2.88
2022-10-17T23:05:56.693Z,2.60
2022-10-17T23:08:23.930Z,2.65
2022-10-17T23:10:50.460Z,3.33
2022-10-17T23:13:17.125Z,2.65
2022-10-17T23:15:43.596Z,2.67
2022-10-17T23:18:10.185Z,1.98
2022-10-17T23:20:37.666Z,2.65
2022-10-17T23:23:04.617Z,2.42
2022-10-17T23:25:33.730Z,2.95
2022-10-17T23:28:00.721Z,2.45
2022-10-17T23:30:27.414Z,2.50
2022-10-17T23:32:53.952Z,2.60
2022-10-17T23:35:20.489Z,2.05
2022-10-17T23:37:46.958Z,3.05
2022-10-17T23:40:13.452Z,2.28
2022-10-17T23:42:39.942Z,2.03
2022-10-17T23:45:07.149Z,1.90
2022-10-17T23:47:33.903Z,1.70
2022-10-17T23:50:00.586Z,1.92
2022-10-17T23:52:27.167Z,1.67
2022-10-17T23:54:53.976Z,3.05
2022-10-17T23:57:20.536Z,2.17
2022-10-17T23:59:47.197Z,2.00
